Time,TemperatureF,DewpointF,PressureIn,WindDirection,WindDirectionDegrees,WindSpeedMPH,WindSpeedGustMPH,Humidity,HourlyPrecipIn,Conditions,Clouds,dailyrainin,SoftwareType,DateUTC
2013-04-29 00:02:00,50.3,48.6,30.11,NW,309,0.0,0.0,94,0.00,,,0.00,Wunderground v.1.15,2013-04-28 14:02:00,
2013-04-29 00:08:00,50.0,48.1,30.11,NW,309,0.0,0.0,93,0.00,,,0.00,Wunderground v.1.15,2013-04-28 14:08:00,
2013-04-29 00:13:00,49.8,48.1,30.11,NW,308,0.0,0.0,94,0.00,,,0.00,Wunderground v.1.15,2013-04-28 14:13:00,
2013-04-29 00:19:00,49.6,47.9,30.11,NW,309,0.0,0.0,94,0.00,,,0.00,Wunderground v.1.15,2013-04-28 14:19:00,
2013-04-29 00:24:00,49.8,48.1,30.11,NW,309,0.0,0.0,94,0.00,,,0.00,Wunderground v.1.15,2013-04-28 14:24:00,
2013-04-29 00:30:00,49.7,48.0,30.11,North,-999,0.0,0.0,94,0.00,,,-99.99,WeatherLink 5.9.3,2013-04-28 14:30:00,
2013-04-29 00:36:00,49.5,47.8,30.11,NW,308,0.0,0.0,94,0.00,,,0.00,Wunderground v.1.15,2013-04-28 14:36:00,
2013-04-29 00:42:00,49.3,47.6,30.11,NW,309,0.0,0.0,94,0.00,,,0.00,Wunderground v.1.15,2013-04-28 14:42:00,
2013-04-29 00:47:00,49.3,47.6,30.11,NW,309,0.0,0.0,94,0.00,,,0.00,Wunderground v.1.15,2013-04-28 14:47:00,
2013-04-29 00:52:00,49.4,47.7,30.11,NW,308,0.0,0.0,94,0.00,,,0.00,Wunderground v.1.15,2013-04-28 14:52:00,
2013-04-29 00:58:00,49.3,47.6,30.11,NW,309,0.0,0.0,94,0.00,,,0.00,Wunderground v.1.15,2013-04-28 14:58:00,
2013-04-29 01:03:00,48.9,47.2,30.11,NW,308,0.0,0.0,94,0.00,,,0.00,Wunderground v.1.15,2013-04-28 15:03:00,
2013-04-29 01:09:00,48.5,46.9,30.11,NW,308,0.0,0.0,94,0.00,,,0.00,Wunderground v.1.15,2013-04-28 15:09:00,
2013-04-29 01:14:00,48.3,46.7,30.11,NW,308,0.0,0.0,94,0.00,,,0.00,Wunderground v.1.15,2013-04-28 15:14:00,
2013-04-29 01:20:00,48.5,46.9,30.11,North,-999,0.0,0.0,94,0.00,,,-99.99,WeatherLink 5.9.3,2013-04-28 15:20:00,
2013-04-29 01:26:00,48.0,46.4,30.11,NW,309,0.0,0.0,94,0.00,,,0.00,Wunderground v.1.15,2013-04-28 15:26:00,
2013-04-29 01:31:00,47.9,46.3,30.11,NW,309,0.0,0.0,94,0.00,,,0.00,Wunderground v.1.15,2013-04-28 15:31:00,
2013-04-29 01:37:00,47.8,46.2,30.11,NW,308,0.0,0.0,94,0.00,,,0.00,Wunderground v.1.15,2013-04-28 15:37:00,
2013-04-29 01:43:00,47.9,46.5,30.11,NW,308,0.0,0.0,95,0.00,,,0.00,Wunderground v.1.15,2013-04-28 15:43:00,
2013-04-29 01:48:00,48.1,46.7,30.11,NW,309,0.0,0.0,95,0.00,,,0.00,Wunderground v.1.15,2013-04-28 15:48:00,
2013-04-29 01:54:00,48.1,46.7,30.11,NW,308,0.0,0.0,95,0.00,,,0.00,Wunderground v.1.15,2013-04-28 15:54:00,
2013-04-29 01:59:00,48.0,46.6,30.11,NW,309,0.0,0.0,95,0.00,,,0.00,Wunderground v.1.15,2013-04-28 15:59:00,
2013-04-29 02:04:00,48.0,46.6,30.11,NW,308,0.0,0.0,95,0.00,,,0.00,Wunderground v.1.15,2013-04-28 16:04:00,
2013-04-29 02:09:00,48.0,46.6,30.11,NW,308,0.0,0.0,95,0.00,,,0.00,Wunderground v.1.15,2013-04-28 16:09:00,
2013-04-29 02:14:00,47.9,46.5,30.11,NW,309,0.0,0.0,95,0.00,,,0.00,Wunderground v.1.15,2013-04-28 16:14:00,
2013-04-29 02:19:00,48.0,46.6,30.11,NW,308,0.0,0.0,95,0.00,,,0.00,Wunderground v.1.15,2013-04-28 16:19:00,
2013-04-29 02:24:00,48.0,46.6,30.11,NW,308,0.0,0.0,95,0.00,,,0.00,Wunderground v.1.15,2013-04-28 16:24:00,
2013-04-29 02:29:00,48.0,46.6,30.11,NW,309,0.0,0.0,95,0.00,,,0.00,Wunderground v.1.15,2013-04-28 16:29:00,
2013-04-29 02:34:00,48.0,46.6,30.11,NW,308,0.0,0.0,95,0.00,,,0.00,Wunderground v.1.15,2013-04-28 16:34:00,
2013-04-29 02:39:00,47.9,46.5,30.11,NW,308,0.0,0.0,95,0.00,,,0.00,Wunderground v.1.15,2013-04-28 16:39:00,
2013-04-29 02:44:00,47.7,46.3,30.11,NW,308,0.0,0.0,95,0.00,,,0.00,Wunderground v.1.15,2013-04-28 16:44:00,
2013-04-29 02:49:00,47.6,46.2,30.11,NW,309,0.0,0.0,95,0.00,,,0.00,Wunderground v.1.15,2013-04-28 16:49:00,
2013-04-29 02:54:00,47.5,46.1,30.11,NW,309,0.0,0.0,95,0.00,,,0.00,Wunderground v.1.15,2013-04-28 16:54:00,
2013-04-29 02:59:00,47.3,45.9,30.11,NW,309,0.0,0.0,95,0.00,,,0.00,Wunderground v.1.15,2013-04-28 16:59:00,
2013-04-29 03:04:00,47.1,45.7,30.11,NW,309,0.0,0.0,95,0.00,,,0.00,Wunderground v.1.15,2013-04-28 17:04:00,
2013-04-29 03:09:00,47.1,45.7,30.11,NW,309,0.0,0.0,95,0.00,,,0.00,Wunderground v.1.15,2013-04-28 17:09:00,
2013-04-29 03:15:00,47.3,45.9,30.11,NW,308,0.0,0.0,95,0.00,,,0.00,Wunderground v.1.15,2013-04-28 17:15:00,
2013-04-29 03:20:00,47.2,45.8,30.11,NW,308,0.0,0.0,95,0.00,,,0.00,Wunderground v.1.15,2013-04-28 17:20:00,
2013-04-29 03:25:00,47.1,45.7,30.11,NW,308,0.0,0.0,95,0.00,,,0.00,Wunderground v.1.15,2013-04-28 17:25:00,
2013-04-29 03:30:00,47.0,45.6,30.11,NW,309,0.0,0.0,95,0.00,,,0.00,Wunderground v.1.15,2013-04-28 17:30:00,
2013-04-29 03:35:00,46.9,45.5,30.11,NW,308,0.0,0.0,95,0.00,,,0.00,Wunderground v.1.15,2013-04-28 17:35:00,
2013-04-29 03:40:00,46.9,45.8,30.11,NW,308,0.0,0.0,96,0.00,,,0.00,Wunderground v.1.15,2013-04-28 17:40:00,
2013-04-29 03:45:00,47.0,45.9,30.11,NW,309,0.0,0.0,96,0.00,,,0.00,Wunderground v.1.15,2013-04-28 17:45:00,
2013-04-29 03:50:00,46.8,45.4,30.11,NW,309,0.0,0.0,95,0.00,,,0.00,Wunderground v.1.15,2013-04-28 17:50:00,
2013-04-29 03:55:00,46.6,45.2,30.11,NW,309,0.0,0.0,95,0.00,,,0.00,Wunderground v.1.15,2013-04-28 17:55:00,
2013-04-29 04:00:00,46.5,45.1,30.12,NW,308,0.0,0.0,95,0.00,,,0.00,Wunderground v.1.15,2013-04-28 18:00:00,
2013-04-29 04:05:00,46.4,45.0,30.12,NW,308,0.0,0.0,95,0.00,,,0.00,Wunderground v.1.15,2013-04-28 18:05:00,
2013-04-29 04:10:00,46.5,45.4,30.12,NW,308,0.0,0.0,96,0.00,,,0.00,Wunderground v.1.15,2013-04-28 18:10:00,
2013-04-29 04:15:00,46.5,45.4,30.12,NW,309,0.0,0.0,96,0.00,,,0.00,Wunderground v.1.15,2013-04-28 18:15:00,
2013-04-29 04:20:00,46.2,44.8,30.12,NW,309,0.0,0.0,95,0.00,,,0.00,Wunderground v.1.15,2013-04-28 18:20:00,
2013-04-29 04:25:00,46.0,44.6,30.13,NW,308,0.0,0.0,95,0.00,,,0.00,Wunderground v.1.15,2013-04-28 18:25:00,
2013-04-29 04:30:00,45.9,44.8,30.13,NW,309,0.0,0.0,96,0.00,,,0.00,Wunderground v.1.15,2013-04-28 18:30:00,
2013-04-29 04:35:00,45.9,44.5,30.13,NW,309,0.0,0.0,95,0.00,,,0.00,Wunderground v.1.15,2013-04-28 18:35:00,
2013-04-29 04:40:00,45.7,44.4,30.13,NW,308,0.0,0.0,95,0.00,,,0.00,Wunderground v.1.15,2013-04-28 18:40:00,
2013-04-29 04:45:00,45.5,44.2,30.13,NW,309,0.0,0.0,95,0.00,,,0.00,Wunderground v.1.15,2013-04-28 18:45:00,
2013-04-29 04:50:00,45.5,44.4,30.13,North,-999,0.0,0.0,96,0.00,,,-99.99,WeatherLink 5.9.3,2013-04-28 18:50:00,
2013-04-29 04:55:00,45.9,44.8,30.13,NW,309,0.0,0.0,96,0.00,,,0.00,Wunderground v.1.15,2013-04-28 18:55:00,
2013-04-29 05:01:00,45.9,44.8,30.13,North,-999,0.0,0.0,96,0.00,,,-99.99,WeatherLink 5.9.3,2013-04-28 19:01:00,
2013-04-29 05:06:00,45.5,44.4,30.14,NW,308,0.0,0.0,96,0.00,,,0.00,Wunderground v.1.15,2013-04-28 19:06:00,
2013-04-29 05:11:00,45.6,44.5,30.13,North,-999,0.0,0.0,96,0.00,,,-99.99,WeatherLink 5.9.3,2013-04-28 19:11:00,
2013-04-29 05:16:00,45.5,44.4,30.14,NW,309,0.0,0.0,96,0.00,,,0.00,Wunderground v.1.15,2013-04-28 19:16:00,
2013-04-29 05:21:00,45.3,44.2,30.14,NW,308,0.0,0.0,96,0.00,,,0.00,Wunderground v.1.15,2013-04-28 19:21:00,
2013-04-29 05:26:00,45.1,43.8,30.14,NW,309,0.0,0.0,95,0.00,,,0.00,Wunderground v.1.15,2013-04-28 19:26:00,
2013-04-29 05:31:00,44.9,43.8,30.14,NW,308,0.0,0.0,96,0.00,,,0.00,Wunderground v.1.15,2013-04-28 19:31:00,
2013-04-29 05:36:00,44.8,43.7,30.15,NW,308,0.0,0.0,96,0.00,,,0.00,Wunderground v.1.15,2013-04-28 19:36:00,
2013-04-29 05:41:00,45.0,43.9,30.15,NW,308,0.0,0.0,96,0.00,,,0.00,Wunderground v.1.15,2013-04-28 19:41:00,
2013-04-29 05:46:00,45.1,44.0,30.15,NW,308,0.0,0.0,96,0.00,,,0.00,Wunderground v.1.15,2013-04-28 19:46:00,
2013-04-29 05:51:00,45.0,43.9,30.15,NW,308,0.0,0.0,96,0.00,,,0.00,Wunderground v.1.15,2013-04-28 19:51:00,
2013-04-29 05:56:00,45.0,43.9,30.16,NW,308,0.0,0.0,96,0.00,,,0.00,Wunderground v.1.15,2013-04-28 19:56:00,
2013-04-29 06:01:00,44.9,43.8,30.16,NW,308,0.0,0.0,96,0.00,,,0.00,Wunderground v.1.15,2013-04-28 20:01:00,
2013-04-29 06:06:00,44.8,43.7,30.16,NW,308,0.0,0.0,96,0.00,,,0.00,Wunderground v.1.15,2013-04-28 20:06:00,
2013-04-29 06:11:00,44.7,43.6,30.16,NW,308,0.0,0.0,96,0.00,,,0.00,Wunderground v.1.15,2013-04-28 20:11:00,
2013-04-29 06:16:00,44.6,43.5,30.16,NW,308,0.0,0.0,96,0.00,,,0.00,Wunderground v.1.15,2013-04-28 20:16:00,
2013-04-29 06:21:00,44.6,43.5,30.16,NW,308,0.0,0.0,96,0.00,,,0.00,Wunderground v.1.15,2013-04-28 20:21:00,
2013-04-29 06:26:00,44.5,43.4,30.16,NW,309,0.0,0.0,96,0.00,,,0.00,Wunderground v.1.15,2013-04-28 20:26:00,
2013-04-29 06:31:00,44.7,43.6,30.16,NW,308,0.0,0.0,96,0.00,,,0.00,Wunderground v.1.15,2013-04-28 20:31:00,
2013-04-29 06:36:00,44.9,43.8,30.16,NW,308,0.0,0.0,96,0.00,,,0.00,Wunderground v.1.15,2013-04-28 20:36:00,
2013-04-29 06:41:00,45.1,44.0,30.17,NW,309,0.0,0.0,96,0.00,,,0.00,Wunderground v.1.15,2013-04-28 20:41:00,
2013-04-29 06:46:00,45.1,44.0,30.17,NW,309,0.0,0.0,96,0.00,,,0.00,Wunderground v.1.15,2013-04-28 20:46:00,
2013-04-29 06:51:00,45.5,44.4,30.17,NW,309,0.0,0.0,96,0.00,,,0.00,Wunderground v.1.15,2013-04-28 20:51:00,
2013-04-29 06:56:00,45.8,45.0,30.17,NW,309,0.0,0.0,97,0.00,,,0.00,Wunderground v.1.15,2013-04-28 20:56:00,
2013-04-29 07:01:00,46.5,45.7,30.18,NW,308,0.0,0.0,97,0.00,,,0.00,Wunderground v.1.15,2013-04-28 21:01:00,
2013-04-29 07:06:00,47.7,46.9,30.18,NW,309,0.0,0.0,97,0.00,,,0.00,Wunderground v.1.15,2013-04-28 21:06:00,
2013-04-29 07:11:00,48.9,48.1,30.18,NW,309,0.0,0.0,97,0.00,,,0.00,Wunderground v.1.15,2013-04-28 21:11:00,
2013-04-29 07:16:00,50.5,49.7,30.18,NW,309,0.0,0.0,97,0.00,,,0.00,Wunderground v.1.15,2013-04-28 21:16:00,
2013-04-29 07:21:00,51.1,50.3,30.18,NW,310,0.0,0.0,97,0.00,,,0.00,Wunderground v.1.15,2013-04-28 21:21:00,
2013-04-29 07:26:00,51.3,50.5,30.18,NW,310,0.0,0.0,97,0.00,,,0.00,Wunderground v.1.15,2013-04-28 21:26:00,
2013-04-29 07:31:00,51.2,50.4,30.19,NW,310,0.0,0.0,97,0.00,,,0.00,Wunderground v.1.15,2013-04-28 21:31:00,
2013-04-29 07:36:00,52.4,51.3,30.19,NW,309,0.0,0.0,96,0.00,,,0.00,Wunderground v.1.15,2013-04-28 21:36:00,
2013-04-29 07:41:00,53.9,52.2,30.19,NW,309,0.0,0.0,94,0.00,,,0.00,Wunderground v.1.15,2013-04-28 21:41:00,
2013-04-29 07:47:00,55.2,52.3,30.19,NW,309,0.0,0.0,90,0.00,,,0.00,Wunderground v.1.15,2013-04-28 21:47:00,
2013-04-29 07:52:00,56.7,51.9,30.20,NW,309,0.0,0.0,84,0.00,,,0.00,Wunderground v.1.15,2013-04-28 21:52:00,
2013-04-29 07:57:00,57.5,51.4,30.20,NW,309,0.0,0.0,80,0.00,,,0.00,Wunderground v.1.15,2013-04-28 21:57:00,
2013-04-29 08:02:00,57.4,50.2,30.20,NW,311,0.0,0.0,77,0.00,,,0.00,Wunderground v.1.15,2013-04-28 22:02:00,
2013-04-29 08:07:00,57.9,50.7,30.20,NW,311,0.0,0.0,77,0.00,,,0.00,Wunderground v.1.15,2013-04-28 22:07:00,
2013-04-29 08:12:00,58.3,50.8,30.20,ENE,68,0.0,0.0,76,0.00,,,0.00,Wunderground v.1.15,2013-04-28 22:12:00,
2013-04-29 08:17:00,59.2,50.9,30.20,NE,38,0.0,0.0,74,0.00,,,0.00,Wunderground v.1.15,2013-04-28 22:17:00,
2013-04-29 08:22:00,59.6,50.2,30.20,NW,319,0.0,0.0,71,0.00,,,0.00,Wunderground v.1.15,2013-04-28 22:22:00,
2013-04-29 08:27:00,60.3,52.0,30.20,WNW,299,0.0,1.0,74,0.00,,,0.00,Wunderground v.1.15,2013-04-28 22:27:00,
2013-04-29 08:32:00,61.4,52.3,30.21,WNW,297,0.0,0.0,72,0.00,,,0.00,Wunderground v.1.15,2013-04-28 22:32:00,
2013-04-29 08:37:00,62.4,51.7,30.21,East,86,0.0,1.0,68,0.00,,,0.00,Wunderground v.1.15,2013-04-28 22:37:00,
2013-04-29 08:42:00,62.4,52.1,30.21,South,172,0.0,1.0,69,0.00,,,0.00,Wunderground v.1.15,2013-04-28 22:42:00,
2013-04-29 08:47:00,62.6,52.3,30.21,SSW,213,0.0,1.0,69,0.00,,,0.00,Wunderground v.1.15,2013-04-28 22:47:00,
2013-04-29 08:52:00,63.1,52.4,30.21,NE,38,0.0,0.0,68,0.00,,,0.00,Wunderground v.1.15,2013-04-28 22:52:00,
2013-04-29 08:57:00,63.6,52.8,30.21,NNE,30,0.0,1.0,68,0.00,,,0.00,Wunderground v.1.15,2013-04-28 22:57:00,
2013-04-29 09:02:00,63.5,52.3,30.21,NE,41,0.0,1.0,67,0.00,,,0.00,Wunderground v.1.15,2013-04-28 23:02:00,
2013-04-29 09:07:00,63.9,52.7,30.21,NNE,24,0.0,1.0,67,0.00,,,0.00,Wunderground v.1.15,2013-04-28 23:07:00,
2013-04-29 09:12:00,64.3,53.1,30.21,NE,35,0.0,1.0,67,0.00,,,0.00,Wunderground v.1.15,2013-04-28 23:12:00,
2013-04-29 09:17:00,64.7,52.7,30.21,NNE,25,0.0,1.0,65,0.00,,,0.00,Wunderground v.1.15,2013-04-28 23:17:00,
2013-04-29 09:22:00,65.2,54.0,30.21,NNE,32,0.0,1.0,67,0.00,,,0.00,Wunderground v.1.15,2013-04-28 23:22:00,
2013-04-29 09:27:00,65.5,53.0,30.21,WSW,242,0.0,2.0,64,0.00,,,0.00,Wunderground v.1.15,2013-04-28 23:27:00,
2013-04-29 09:32:00,66.0,53.9,30.21,WNW,282,1.0,1.0,65,0.00,,,0.00,Wunderground v.1.15,2013-04-28 23:32:00,
2013-04-29 09:37:00,66.1,54.0,30.21,WNW,300,0.0,2.0,65,0.00,,,0.00,Wunderground v.1.15,2013-04-28 23:37:00,
2013-04-29 09:42:00,66.8,54.2,30.21,NW,323,0.0,1.0,64,0.00,,,0.00,Wunderground v.1.15,2013-04-28 23:42:00,
2013-04-29 09:47:00,67.5,54.0,30.21,NW,319,0.0,2.0,62,0.00,,,0.00,Wunderground v.1.15,2013-04-28 23:47:00,
2013-04-29 09:52:00,67.7,53.8,30.21,West,275,0.0,2.0,61,0.00,,,0.00,Wunderground v.1.15,2013-04-28 23:52:00,
2013-04-29 09:57:00,68.2,54.2,30.21,West,275,0.0,2.0,61,0.00,,,0.00,Wunderground v.1.15,2013-04-28 23:57:00,
2013-04-29 10:02:00,68.7,52.4,30.21,East,91,0.0,2.0,56,0.00,,,0.00,Wunderground v.1.15,2013-04-29 00:02:00,
2013-04-29 10:07:00,69.2,52.8,30.21,NE,38,0.0,2.0,56,0.00,,,0.00,Wunderground v.1.15,2013-04-29 00:07:00,
2013-04-29 10:12:00,69.5,51.1,30.21,West,281,0.0,2.0,52,0.00,,,0.00,Wunderground v.1.15,2013-04-29 00:12:00,
2013-04-29 10:17:00,69.7,51.3,30.21,NNE,30,0.0,3.0,52,0.00,,,0.00,Wunderground v.1.15,2013-04-29 00:17:00,
2013-04-29 10:22:00,70.0,51.6,30.21,NNE,20,0.0,1.0,52,0.00,,,0.00,Wunderground v.1.15,2013-04-29 00:22:00,
2013-04-29 10:27:00,70.4,51.9,30.20,North,350,0.0,1.0,52,0.00,,,0.00,Wunderground v.1.15,2013-04-29 00:27:00,
2013-04-29 10:32:00,70.7,52.2,30.20,NE,38,0.0,1.0,52,0.00,,,0.00,Wunderground v.1.15,2013-04-29 00:32:00,
2013-04-29 10:37:00,71.0,52.0,30.20,NNE,17,0.0,3.0,51,0.00,,,0.00,Wunderground v.1.15,2013-04-29 00:37:00,
2013-04-29 10:42:00,71.3,53.3,30.20,West,276,0.0,1.0,53,0.00,,,0.00,Wunderground v.1.15,2013-04-29 00:42:00,
2013-04-29 10:47:00,71.6,51.4,30.20,NE,37,2.0,3.0,49,0.00,,,0.00,Wunderground v.1.15,2013-04-29 00:47:00,
2013-04-29 10:52:00,72.2,53.1,30.20,NE,38,1.0,2.0,51,0.00,,,0.00,Wunderground v.1.15,2013-04-29 00:52:00,
2013-04-29 10:57:00,72.5,52.2,30.20,NE,46,0.0,3.0,49,0.00,,,0.00,Wunderground v.1.15,2013-04-29 00:57:00,
2013-04-29 11:02:00,73.0,53.8,30.20,NNW,329,0.0,1.0,51,0.00,,,0.00,Wunderground v.1.15,2013-04-29 01:02:00,
2013-04-29 11:07:00,73.5,52.6,30.19,NNE,28,1.0,2.0,48,0.00,,,0.00,Wunderground v.1.15,2013-04-29 01:07:00,
2013-04-29 11:12:00,73.8,52.9,30.19,ENE,76,0.0,3.0,48,0.00,,,0.00,Wunderground v.1.15,2013-04-29 01:12:00,
2013-04-29 11:17:00,74.2,51.5,30.19,NNE,27,0.0,3.0,45,0.00,,,0.00,Wunderground v.1.15,2013-04-29 01:17:00,
2013-04-29 11:22:00,74.6,51.9,30.19,West,273,0.0,1.0,45,0.00,,,0.00,Wunderground v.1.15,2013-04-29 01:22:00,
2013-04-29 11:27:00,75.3,53.1,30.18,WNW,303,0.0,1.0,46,0.00,,,0.00,Wunderground v.1.15,2013-04-29 01:27:00,
2013-04-29 11:32:00,75.7,51.6,30.18,NNE,25,0.0,2.0,43,0.00,,,0.00,Wunderground v.1.15,2013-04-29 01:32:00,
2013-04-29 11:37:00,76.0,50.6,30.18,NE,46,0.0,2.0,41,0.00,,,0.00,Wunderground v.1.15,2013-04-29 01:37:00,
2013-04-29 11:42:00,76.5,52.3,30.18,North,354,1.0,1.0,43,0.00,,,0.00,Wunderground v.1.15,2013-04-29 01:42:00,
2013-04-29 11:47:00,77.0,51.5,30.17,NE,53,0.0,2.0,41,0.00,,,0.00,Wunderground v.1.15,2013-04-29 01:47:00,
2013-04-29 11:52:00,77.4,51.9,30.17,SSE,159,0.0,1.0,41,0.00,,,0.00,Wunderground v.1.15,2013-04-29 01:52:00,
2013-04-29 11:57:00,77.7,51.5,30.17,NE,35,1.0,3.0,40,0.00,,,0.00,Wunderground v.1.15,2013-04-29 01:57:00,
2013-04-29 12:02:00,77.9,52.3,30.17,NNE,20,1.0,2.0,41,0.00,,,0.00,Wunderground v.1.15,2013-04-29 02:02:00,
2013-04-29 12:07:00,78.3,52.7,30.16,WNW,288,2.0,2.0,41,0.00,,,0.00,Wunderground v.1.15,2013-04-29 02:07:00,
2013-04-29 12:12:00,78.5,52.2,30.16,NNE,19,1.0,2.0,40,0.00,,,0.00,Wunderground v.1.15,2013-04-29 02:12:00,
2013-04-29 12:17:00,78.8,51.7,30.16,NNE,32,0.0,2.0,39,0.00,,,0.00,Wunderground v.1.15,2013-04-29 02:17:00,
2013-04-29 12:22:00,79.0,52.6,30.16,ENE,60,0.0,2.0,40,0.00,,,0.00,Wunderground v.1.15,2013-04-29 02:22:00,
2013-04-29 12:27:00,79.3,52.2,30.16,NW,311,0.0,2.0,39,0.00,,,0.00,Wunderground v.1.15,2013-04-29 02:27:00,
2013-04-29 12:32:00,79.4,53.0,30.16,NNE,17,1.0,2.0,40,0.00,,,0.00,Wunderground v.1.15,2013-04-29 02:32:00,
2013-04-29 12:37:00,79.5,52.4,30.15,NNE,32,1.0,2.0,39,0.00,,,0.00,Wunderground v.1.15,2013-04-29 02:37:00,
2013-04-29 12:42:00,79.9,53.4,30.15,NNE,20,0.0,0.0,40,0.00,,,0.00,Wunderground v.1.15,2013-04-29 02:42:00,
2013-04-29 12:47:00,80.2,52.3,30.15,NNE,20,2.0,2.0,38,0.00,,,0.00,Wunderground v.1.15,2013-04-29 02:47:00,
2013-04-29 12:52:00,80.1,53.6,30.14,East,87,0.0,1.0,40,0.00,,,0.00,Wunderground v.1.15,2013-04-29 02:52:00,
2013-04-29 12:57:00,80.2,52.3,30.14,NE,40,1.0,3.0,38,0.00,,,0.00,Wunderground v.1.15,2013-04-29 02:57:00,
2013-04-29 13:02:00,80.5,52.6,30.14,NE,40,0.0,0.0,38,0.00,,,0.00,Wunderground v.1.15,2013-04-29 03:02:00,
2013-04-29 13:07:00,80.6,52.6,30.13,NE,54,2.0,3.0,38,0.00,,,0.00,Wunderground v.1.15,2013-04-29 03:07:00,
2013-04-29 13:12:00,80.8,52.8,30.13,NNE,32,1.0,2.0,38,0.00,,,0.00,Wunderground v.1.15,2013-04-29 03:12:00,
2013-04-29 13:17:00,80.9,52.2,30.13,NE,44,0.0,3.0,37,0.00,,,0.00,Wunderground v.1.15,2013-04-29 03:17:00,
2013-04-29 13:22:00,80.9,52.2,30.13,WNW,293,1.0,1.0,37,0.00,,,0.00,Wunderground v.1.15,2013-04-29 03:22:00,
2013-04-29 13:27:00,81.2,52.4,30.13,ENE,70,1.0,3.0,37,0.00,,,0.00,Wunderground v.1.15,2013-04-29 03:27:00,
2013-04-29 13:32:00,81.1,52.4,30.13,East,84,3.0,3.0,37,0.00,,,0.00,Wunderground v.1.15,2013-04-29 03:32:00,
2013-04-29 13:37:00,81.0,52.3,30.13,NE,38,0.0,3.0,37,0.00,,,0.00,Wunderground v.1.15,2013-04-29 03:37:00,
2013-04-29 13:42:00,81.3,52.5,30.13,NNE,26,0.0,1.0,37,0.00,,,0.00,Wunderground v.1.15,2013-04-29 03:42:00,
2013-04-29 13:47:00,81.5,52.7,30.13,NE,54,0.0,2.0,37,0.00,,,0.00,Wunderground v.1.15,2013-04-29 03:47:00,
2013-04-29 13:53:00,81.6,53.5,30.13,NNE,33,0.0,1.0,38,0.00,,,0.00,Wunderground v.1.15,2013-04-29 03:53:00,
2013-04-29 13:58:00,81.7,51.4,30.13,ESE,103,0.0,4.0,35,0.00,,,0.00,Wunderground v.1.15,2013-04-29 03:58:00,
2013-04-29 14:01:00,81.8,52.2,30.13,East,100,0.0,2.0,36,0.00,,,0.00,Wunderground v.1.15,2013-04-29 04:01:00,
2013-04-29 14:06:00,81.7,51.4,30.13,ENE,75,1.0,4.0,35,0.00,,,0.00,Wunderground v.1.15,2013-04-29 04:06:00,
2013-04-29 14:11:00,81.9,52.3,30.13,NNE,27,0.0,1.0,36,0.00,,,0.00,Wunderground v.1.15,2013-04-29 04:11:00,
2013-04-29 14:16:00,82.2,52.6,30.13,ENE,75,0.0,1.0,36,0.00,,,0.00,Wunderground v.1.15,2013-04-29 04:16:00,
2013-04-29 14:21:00,82.6,53.7,30.13,SSE,155,1.0,1.0,37,0.00,,,0.00,Wunderground v.1.15,2013-04-29 04:21:00,
2013-04-29 14:26:00,82.4,52.8,30.13,ENE,58,1.0,2.0,36,0.00,,,0.00,Wunderground v.1.15,2013-04-29 04:26:00,
2013-04-29 14:31:00,82.2,52.6,30.13,SE,131,0.0,1.0,36,0.00,,,0.00,Wunderground v.1.15,2013-04-29 04:31:00,
2013-04-29 14:36:00,82.8,53.1,30.13,SE,129,0.0,1.0,36,0.00,,,0.00,Wunderground v.1.15,2013-04-29 04:36:00,
2013-04-29 14:41:00,83.4,52.9,30.13,NNE,28,0.0,1.0,35,0.00,,,0.00,Wunderground v.1.15,2013-04-29 04:41:00,
2013-04-29 14:46:00,83.3,51.2,30.13,ENE,75,0.0,1.0,33,0.00,,,0.00,Wunderground v.1.15,2013-04-29 04:46:00,
2013-04-29 14:51:00,83.4,53.6,30.13,ENE,75,0.0,0.0,36,0.00,,,0.00,Wunderground v.1.15,2013-04-29 04:51:00,
2013-04-29 14:56:00,83.2,51.9,30.13,ENE,72,2.0,2.0,34,0.00,,,0.00,Wunderground v.1.15,2013-04-29 04:56:00,
2013-04-29 15:01:00,82.8,51.6,30.13,East,87,0.0,1.0,34,0.00,,,0.00,Wunderground v.1.15,2013-04-29 05:01:00,
2013-04-29 15:07:00,82.7,52.3,30.14,NE,41,0.0,2.0,35,0.00,,,0.00,Wunderground v.1.15,2013-04-29 05:07:00,
2013-04-29 15:12:00,82.7,54.5,30.14,NE,51,0.0,0.0,38,0.00,,,0.00,Wunderground v.1.15,2013-04-29 05:12:00,
2013-04-29 15:16:00,82.7,53.0,30.13,NE,40,1.0,2.0,36,0.00,,,0.00,Wunderground v.1.15,2013-04-29 05:16:00,
2013-04-29 15:21:00,82.5,52.9,30.13,East,79,0.0,2.0,36,0.00,,,0.00,Wunderground v.1.15,2013-04-29 05:21:00,
2013-04-29 15:27:00,82.2,54.1,30.13,ENE,61,0.0,2.0,38,0.00,,,0.00,Wunderground v.1.15,2013-04-29 05:27:00,
2013-04-29 15:32:00,82.3,52.7,30.14,East,82,1.0,1.0,36,0.00,,,0.00,Wunderground v.1.15,2013-04-29 05:32:00,
2013-04-29 15:37:00,82.2,51.8,30.14,ENE,62,0.0,2.0,35,0.00,,,0.00,Wunderground v.1.15,2013-04-29 05:37:00,
2013-04-29 15:42:00,81.9,53.1,30.14,ENE,60,0.0,1.0,37,0.00,,,0.00,Wunderground v.1.15,2013-04-29 05:42:00,
2013-04-29 15:47:00,81.8,53.0,30.14,ENE,58,2.0,4.0,37,0.00,,,0.00,Wunderground v.1.15,2013-04-29 05:47:00,
2013-04-29 15:52:00,81.6,52.8,30.14,ESE,118,1.0,1.0,37,0.00,,,0.00,Wunderground v.1.15,2013-04-29 05:52:00,
2013-04-29 15:57:00,81.5,53.4,30.14,ENE,76,1.0,2.0,38,0.00,,,0.00,Wunderground v.1.15,2013-04-29 05:57:00,
2013-04-29 16:02:00,81.2,54.6,30.14,ENE,72,0.0,1.0,40,0.00,,,0.00,Wunderground v.1.15,2013-04-29 06:02:00,
2013-04-29 16:07:00,80.8,54.9,30.14,East,96,1.0,3.0,41,0.00,,,0.00,Wunderground v.1.15,2013-04-29 06:07:00,
2013-04-29 16:12:00,80.4,55.2,30.14,East,100,1.0,3.0,42,0.00,,,0.00,Wunderground v.1.15,2013-04-29 06:12:00,
2013-04-29 16:17:00,79.9,56.0,30.14,ENE,63,2.0,3.0,44,0.00,,,0.00,Wunderground v.1.15,2013-04-29 06:17:00,
2013-04-29 16:22:00,79.4,56.8,30.14,NNW,335,0.0,1.0,46,0.00,,,0.00,Wunderground v.1.15,2013-04-29 06:22:00,
2013-04-29 16:27:00,78.8,56.9,30.14,NE,45,0.0,2.0,47,0.00,,,0.00,Wunderground v.1.15,2013-04-29 06:27:00,
2013-04-29 16:32:00,78.3,55.8,30.14,ENE,65,0.0,2.0,46,0.00,,,0.00,Wunderground v.1.15,2013-04-29 06:32:00,
2013-04-29 16:37:00,77.7,55.3,30.14,ENE,71,1.0,2.0,46,0.00,,,0.00,Wunderground v.1.15,2013-04-29 06:37:00,
2013-04-29 16:42:00,77.2,56.0,30.14,NE,42,1.0,2.0,48,0.00,,,0.00,Wunderground v.1.15,2013-04-29 06:42:00,
2013-04-29 16:47:00,76.7,57.7,30.14,NE,55,1.0,2.0,52,0.00,,,0.00,Wunderground v.1.15,2013-04-29 06:47:00,
2013-04-29 16:52:00,76.1,58.8,30.15,ESE,107,0.0,1.0,55,0.00,,,0.00,Wunderground v.1.15,2013-04-29 06:52:00,
2013-04-29 16:57:00,75.5,59.2,30.15,ENE,60,1.0,1.0,57,0.00,,,0.00,Wunderground v.1.15,2013-04-29 06:57:00,
2013-04-29 17:02:00,75.0,59.7,30.15,East,84,0.0,0.0,59,0.00,,,0.00,Wunderground v.1.15,2013-04-29 07:02:00,
2013-04-29 17:07:00,74.2,60.3,30.15,ENE,69,0.0,0.0,62,0.00,,,0.00,Wunderground v.1.15,2013-04-29 07:07:00,
2013-04-29 17:12:00,73.5,60.6,30.15,East,80,0.0,1.0,64,0.00,,,0.00,Wunderground v.1.15,2013-04-29 07:12:00,
2013-04-29 17:17:00,72.9,61.3,30.15,NE,48,1.0,1.0,67,0.00,,,0.00,Wunderground v.1.15,2013-04-29 07:17:00,
2013-04-29 17:22:00,72.4,61.2,30.15,NE,52,0.0,1.0,68,0.00,,,0.00,Wunderground v.1.15,2013-04-29 07:22:00,
2013-04-29 17:27:00,72.0,61.7,30.15,ENE,65,0.0,1.0,70,0.00,,,0.00,Wunderground v.1.15,2013-04-29 07:27:00,
2013-04-29 17:32:00,71.4,61.5,30.15,ENE,69,0.0,1.0,71,0.00,,,0.00,Wunderground v.1.15,2013-04-29 07:32:00,
2013-04-29 17:37:00,70.7,61.6,30.15,ENE,76,0.0,2.0,73,0.00,,,0.00,Wunderground v.1.15,2013-04-29 07:37:00,
2013-04-29 17:42:00,70.4,61.7,30.16,NE,52,2.0,2.0,74,0.00,,,0.00,Wunderground v.1.15,2013-04-29 07:42:00,
2013-04-29 17:47:00,70.1,61.8,30.16,NE,44,1.0,2.0,75,0.00,,,0.00,Wunderground v.1.15,2013-04-29 07:47:00,
2013-04-29 17:52:00,69.9,62.0,30.16,NE,49,1.0,1.0,76,0.00,,,0.00,Wunderground v.1.15,2013-04-29 07:52:00,
2013-04-29 17:57:00,69.7,62.2,30.16,ENE,60,0.0,2.0,77,0.00,,,0.00,Wunderground v.1.15,2013-04-29 07:57:00,
2013-04-29 18:02:00,69.4,62.2,30.17,ENE,71,0.0,1.0,78,0.00,,,0.00,Wunderground v.1.15,2013-04-29 08:02:00,
2013-04-29 18:07:00,69.0,61.9,30.17,ENE,72,0.0,1.0,78,0.00,,,0.00,Wunderground v.1.15,2013-04-29 08:07:00,
2013-04-29 18:12:00,68.3,61.5,30.17,ENE,72,0.0,0.0,79,0.00,,,0.00,Wunderground v.1.15,2013-04-29 08:12:00,
2013-04-29 18:17:00,67.5,61.1,30.17,ENE,71,0.0,0.0,80,0.00,,,0.00,Wunderground v.1.15,2013-04-29 08:17:00,
2013-04-29 18:22:00,67.0,61.7,30.17,NE,41,0.0,1.0,83,0.00,,,0.00,Wunderground v.1.15,2013-04-29 08:22:00,
2013-04-29 18:27:00,66.7,61.4,30.17,NE,41,0.0,1.0,83,0.00,,,0.00,Wunderground v.1.15,2013-04-29 08:27:00,
2013-04-29 18:32:00,66.2,61.2,30.18,NE,41,0.0,0.0,84,0.00,,,0.00,Wunderground v.1.15,2013-04-29 08:32:00,
2013-04-29 18:37:00,65.8,61.5,30.18,NE,41,0.0,0.0,86,0.00,,,0.00,Wunderground v.1.15,2013-04-29 08:37:00,
2013-04-29 18:42:00,65.6,61.3,30.18,NE,41,0.0,0.0,86,0.00,,,0.00,Wunderground v.1.15,2013-04-29 08:42:00,
2013-04-29 18:47:00,65.4,61.4,30.19,NE,41,0.0,0.0,87,0.00,,,0.00,Wunderground v.1.15,2013-04-29 08:47:00,
2013-04-29 18:52:00,64.9,60.6,30.19,NE,41,0.0,0.0,86,0.00,,,0.00,Wunderground v.1.15,2013-04-29 08:52:00,
2013-04-29 18:57:00,64.3,60.0,30.19,North,1,0.0,0.0,86,0.00,,,0.00,Wunderground v.1.15,2013-04-29 08:57:00,
2013-04-29 19:02:00,63.8,59.9,30.19,North,1,0.0,0.0,87,0.00,,,0.00,Wunderground v.1.15,2013-04-29 09:02:00,
2013-04-29 19:07:00,63.4,59.8,30.19,North,1,0.0,0.0,88,0.00,,,0.00,Wunderground v.1.15,2013-04-29 09:07:00,
2013-04-29 19:12:00,63.1,59.8,30.19,North,1,0.0,0.0,89,0.00,,,0.00,Wunderground v.1.15,2013-04-29 09:12:00,
2013-04-29 19:17:00,62.6,59.3,30.20,North,1,0.0,0.0,89,0.00,,,0.00,Wunderground v.1.15,2013-04-29 09:17:00,
2013-04-29 19:22:00,62.5,59.5,30.20,North,1,0.0,0.0,90,0.00,,,0.00,Wunderground v.1.15,2013-04-29 09:22:00,
2013-04-29 19:27:00,62.1,58.8,30.20,North,1,0.0,0.0,89,0.00,,,0.00,Wunderground v.1.15,2013-04-29 09:27:00,
2013-04-29 19:32:00,61.9,58.6,30.20,North,1,0.0,0.0,89,0.00,,,0.00,Wunderground v.1.15,2013-04-29 09:32:00,
2013-04-29 19:37:00,61.6,58.3,30.20,North,1,0.0,0.0,89,0.00,,,0.00,Wunderground v.1.15,2013-04-29 09:37:00,
2013-04-29 19:42:00,61.3,58.0,30.20,North,1,0.0,0.0,89,0.00,,,0.00,Wunderground v.1.15,2013-04-29 09:42:00,
2013-04-29 19:47:00,60.9,57.6,30.21,North,1,0.0,0.0,89,0.00,,,0.00,Wunderground v.1.15,2013-04-29 09:47:00,
2013-04-29 19:52:00,60.6,57.3,30.21,North,1,0.0,0.0,89,0.00,,,0.00,Wunderground v.1.15,2013-04-29 09:52:00,
2013-04-29 19:57:00,60.5,57.9,30.21,North,1,0.0,0.0,91,0.00,,,0.00,Wunderground v.1.15,2013-04-29 09:57:00,
2013-04-29 20:03:00,60.2,57.3,30.21,North,1,0.0,0.0,90,0.00,,,0.00,Wunderground v.1.15,2013-04-29 10:03:00,
2013-04-29 20:08:00,59.9,57.0,30.21,North,1,0.0,0.0,90,0.00,,,0.00,Wunderground v.1.15,2013-04-29 10:08:00,
2013-04-29 20:13:00,59.7,57.1,30.21,North,1,0.0,0.0,91,0.00,,,0.00,Wunderground v.1.15,2013-04-29 10:13:00,
2013-04-29 20:18:00,59.7,57.4,30.21,North,1,0.0,0.0,92,0.00,,,0.00,Wunderground v.1.15,2013-04-29 10:18:00,
2013-04-29 20:23:00,59.5,57.2,30.21,North,1,0.0,0.0,92,0.00,,,0.00,Wunderground v.1.15,2013-04-29 10:23:00,
2013-04-29 20:28:00,59.3,57.0,30.21,North,1,0.0,0.0,92,0.00,,,0.00,Wunderground v.1.15,2013-04-29 10:28:00,
2013-04-29 20:33:00,59.3,57.0,30.21,North,1,0.0,0.0,92,0.00,,,0.00,Wunderground v.1.15,2013-04-29 10:33:00,
2013-04-29 20:38:00,59.1,56.8,30.21,North,1,0.0,0.0,92,0.00,,,0.00,Wunderground v.1.15,2013-04-29 10:38:00,
2013-04-29 20:43:00,58.9,56.6,30.21,North,1,0.0,0.0,92,0.00,,,0.00,Wunderground v.1.15,2013-04-29 10:43:00,
2013-04-29 20:48:00,58.7,56.7,30.22,North,349,0.0,0.0,93,0.00,,,0.00,Wunderground v.1.15,2013-04-29 10:48:00,
2013-04-29 20:53:00,58.6,56.6,30.22,North,349,0.0,0.0,93,0.00,,,0.00,Wunderground v.1.15,2013-04-29 10:53:00,
2013-04-29 20:58:00,58.4,56.4,30.22,North,349,0.0,0.0,93,0.00,,,0.00,Wunderground v.1.15,2013-04-29 10:58:00,
2013-04-29 21:03:00,58.2,56.2,30.22,North,349,0.0,0.0,93,0.00,,,0.00,Wunderground v.1.15,2013-04-29 11:03:00,
2013-04-29 21:08:00,58.0,56.0,30.22,North,349,0.0,0.0,93,0.00,,,0.00,Wunderground v.1.15,2013-04-29 11:08:00,
2013-04-29 21:13:00,57.9,55.9,30.22,North,349,0.0,0.0,93,0.00,,,0.00,Wunderground v.1.15,2013-04-29 11:13:00,
2013-04-29 21:18:00,57.7,55.7,30.22,North,349,0.0,0.0,93,0.00,,,0.00,Wunderground v.1.15,2013-04-29 11:18:00,
2013-04-29 21:23:00,57.8,56.1,30.22,North,349,0.0,0.0,94,0.00,,,0.00,Wunderground v.1.15,2013-04-29 11:23:00,
2013-04-29 21:28:00,57.9,56.2,30.22,North,349,0.0,0.0,94,0.00,,,0.00,Wunderground v.1.15,2013-04-29 11:28:00,
2013-04-29 21:33:00,58.0,56.3,30.22,West,277,0.0,1.0,94,0.00,,,0.00,Wunderground v.1.15,2013-04-29 11:33:00,
2013-04-29 21:38:00,58.1,56.4,30.22,West,277,0.0,1.0,94,0.00,,,0.00,Wunderground v.1.15,2013-04-29 11:38:00,
2013-04-29 21:43:00,58.0,56.3,30.22,West,277,0.0,0.0,94,0.00,,,0.00,Wunderground v.1.15,2013-04-29 11:43:00,
2013-04-29 21:48:00,57.8,56.1,30.22,West,277,0.0,0.0,94,0.00,,,0.00,Wunderground v.1.15,2013-04-29 11:48:00,
2013-04-29 21:53:00,57.6,55.9,30.22,West,278,0.0,1.0,94,0.00,,,0.00,Wunderground v.1.15,2013-04-29 11:53:00,
2013-04-29 21:58:00,57.7,56.3,30.22,WNW,296,0.0,1.0,95,0.00,,,0.00,Wunderground v.1.15,2013-04-29 11:58:00,
2013-04-29 22:03:00,57.8,56.4,30.22,WNW,295,0.0,0.0,95,0.00,,,0.00,Wunderground v.1.15,2013-04-29 12:03:00,
2013-04-29 22:08:00,57.7,56.3,30.22,WNW,295,0.0,0.0,95,0.00,,,0.00,Wunderground v.1.15,2013-04-29 12:08:00,
2013-04-29 22:13:00,57.6,56.2,30.23,WNW,296,0.0,0.0,95,0.00,,,0.00,Wunderground v.1.15,2013-04-29 12:13:00,
2013-04-29 22:18:00,57.5,56.1,30.23,WNW,295,0.0,0.0,95,0.00,,,0.00,Wunderground v.1.15,2013-04-29 12:18:00,
2013-04-29 22:23:00,57.5,56.1,30.22,WNW,295,0.0,0.0,95,0.00,,,0.00,Wunderground v.1.15,2013-04-29 12:23:00,
2013-04-29 22:28:00,57.5,56.1,30.23,WNW,295,0.0,0.0,95,0.00,,,0.00,Wunderground v.1.15,2013-04-29 12:28:00,
2013-04-29 22:33:00,57.3,55.9,30.23,WNW,296,0.0,0.0,95,0.00,,,0.00,Wunderground v.1.15,2013-04-29 12:33:00,
2013-04-29 22:38:00,57.3,55.9,30.22,WNW,295,0.0,0.0,95,0.00,,,0.00,Wunderground v.1.15,2013-04-29 12:38:00,
2013-04-29 22:43:00,57.2,55.8,30.22,WNW,296,0.0,0.0,95,0.00,,,0.00,Wunderground v.1.15,2013-04-29 12:43:00,
2013-04-29 22:48:00,57.3,55.9,30.22,WNW,295,0.0,0.0,95,0.00,,,0.00,Wunderground v.1.15,2013-04-29 12:48:00,
2013-04-29 22:53:00,57.1,55.7,30.22,WNW,295,0.0,0.0,95,0.00,,,0.00,Wunderground v.1.15,2013-04-29 12:53:00,
2013-04-29 22:58:00,57.3,56.2,30.22,WNW,296,0.0,0.0,96,0.00,,,0.00,Wunderground v.1.15,2013-04-29 12:58:00,
2013-04-29 23:03:00,57.6,56.5,30.22,WNW,295,0.0,0.0,96,0.00,,,0.00,Wunderground v.1.15,2013-04-29 13:03:00,
2013-04-29 23:08:00,57.7,56.6,30.22,WNW,293,0.0,0.0,96,0.00,,,0.00,Wunderground v.1.15,2013-04-29 13:08:00,
2013-04-29 23:13:00,57.9,56.8,30.22,WNW,291,0.0,0.0,96,0.00,,,0.00,Wunderground v.1.15,2013-04-29 13:13:00,
2013-04-29 23:18:00,58.0,56.9,30.22,SW,225,0.0,1.0,96,0.00,,,0.00,Wunderground v.1.15,2013-04-29 13:18:00,
2013-04-29 23:23:00,58.0,56.9,30.22,SW,226,0.0,0.0,96,0.00,,,0.00,Wunderground v.1.15,2013-04-29 13:23:00,
2013-04-29 23:28:00,58.0,56.9,30.22,SW,224,0.0,1.0,96,0.00,,,0.00,Wunderground v.1.15,2013-04-29 13:28:00,
2013-04-29 23:34:00,58.1,57.0,30.22,SW,222,0.0,0.0,96,0.00,,,0.00,Wunderground v.1.15,2013-04-29 13:34:00,
2013-04-29 23:39:00,58.0,56.9,30.22,SW,223,0.0,0.0,96,0.00,,,0.00,Wunderground v.1.15,2013-04-29 13:39:00,
2013-04-29 23:44:00,58.0,56.9,30.22,SW,222,0.0,0.0,96,0.00,,,0.00,Wunderground v.1.15,2013-04-29 13:44:00,
2013-04-29 23:49:00,58.0,56.9,30.22,SW,222,0.0,0.0,96,0.00,,,0.00,Wunderground v.1.15,2013-04-29 13:49:00,
2013-04-29 23:54:00,58.0,56.9,30.22,SW,222,0.0,0.0,96,0.00,,,0.00,Wunderground v.1.15,2013-04-29 13:54:00,
2013-04-29 23:59:00,58.0,56.9,30.22,SW,223,0.0,0.0,96,0.00,,,0.00,Wunderground v.1.15,2013-04-29 13:59:00,